createdAt,value
2019-04-01T00:00:35.763Z,1.80
2019-04-01T00:03:13.260Z,2.27
2019-04-01T00:05:50.758Z,2.50
2019-04-01T00:08:28.233Z,1.70
2019-04-01T00:11:05.744Z,2.00
2019-04-01T00:13:43.232Z,1.70
2019-04-01T00:16:20.743Z,2.03
2019-04-01T00:19:03.424Z,2.30
2019-04-01T00:21:35.740Z,1.80
2019-04-01T00:24:13.244Z,2.00
2019-04-01T00:26:50.752Z,1.97
2019-04-01T00:29:28.264Z,1.87
2019-04-01T00:32:05.773Z,2.00
2019-04-01T00:34:43.262Z,2.37
2019-04-01T00:37:20.771Z,2.03
2019-04-01T00:39:58.308Z,1.90
2019-04-01T00:43:00.524Z,2.13
2019-04-01T00:45:38.856Z,1.97
2019-04-01T00:48:17.093Z,2.23
2019-04-01T00:50:54.584Z,2.10
2019-04-01T00:53:32.141Z,2.13
2019-04-01T00:56:09.663Z,2.57
2019-04-01T00:58:47.157Z,3.23
2019-04-01T01:01:24.665Z,3.23
2019-04-01T01:04:02.133Z,2.70
2019-04-01T01:06:39.607Z,2.90
2019-04-01T01:09:17.073Z,2.60
2019-04-01T01:11:54.583Z,2.60
2019-04-01T01:14:32.037Z,3.10
2019-04-01T01:17:09.831Z,2.57
2019-04-01T01:19:47.930Z,5.03
2019-04-01T01:22:25.402Z,3.90
2019-04-01T01:25:02.852Z,2.60
2019-04-01T01:27:40.344Z,2.50
2019-04-01T01:30:17.810Z,2.67
2019-04-01T01:32:55.332Z,2.87
2019-04-01T01:35:32.831Z,2.70
2019-04-01T01:38:10.363Z,2.83
2019-04-01T01:40:47.900Z,3.60
2019-04-01T01:43:25.397Z,3.00
2019-04-01T01:46:02.948Z,2.33
2019-04-01T01:48:41.895Z,2.63
2019-04-01T01:51:19.489Z,2.43
2019-04-01T01:53:56.997Z,2.80
2019-04-01T01:56:34.531Z,2.40
2019-04-01T01:59:12.028Z,2.20
2019-04-01T02:01:49.580Z,2.10
2019-04-01T02:04:27.119Z,2.53
2019-04-01T02:07:04.655Z,2.20
2019-04-01T02:09:42.152Z,1.97
2019-04-01T02:12:19.651Z,2.70
2019-04-01T02:14:57.142Z,2.67
2019-04-01T02:17:34.680Z,2.87
2019-04-01T02:20:12.176Z,3.07
2019-04-01T02:22:49.691Z,3.17
2019-04-01T02:25:27.194Z,2.70
2019-04-01T02:28:04.722Z,2.70
2019-04-01T02:30:42.222Z,2.40
2019-04-01T02:33:19.747Z,3.00
2019-04-01T02:35:57.253Z,2.37
2019-04-01T02:38:34.786Z,2.50
2019-04-01T02:41:12.307Z,2.17
2019-04-01T02:43:49.796Z,2.33
2019-04-01T02:46:27.311Z,2.87
2019-04-01T02:49:04.823Z,4.70
2019-04-01T02:51:42.391Z,3.40
2019-04-01T02:54:19.867Z,3.20
2019-04-01T02:56:57.387Z,3.90
2019-04-01T02:59:34.916Z,4.43
2019-04-01T03:02:12.400Z,3.90
2019-04-01T03:04:49.925Z,3.27
2019-04-01T03:07:27.469Z,3.00
2019-04-01T03:10:04.965Z,2.53
2019-04-01T03:12:42.478Z,2.67
2019-04-01T03:15:20.016Z,3.17
2019-04-01T03:17:57.541Z,2.80
2019-04-01T03:20:35.390Z,2.70
2019-04-01T03:23:12.894Z,2.20
2019-04-01T03:25:50.390Z,2.60
2019-04-01T03:28:27.919Z,2.17
2019-04-01T03:31:05.418Z,2.77
2019-04-01T03:33:42.942Z,2.40
2019-04-01T03:36:20.440Z,2.27
2019-04-01T03:38:57.957Z,2.80
2019-04-01T03:41:35.465Z,2.53
2019-04-01T03:44:12.968Z,2.53
2019-04-01T03:46:50.486Z,2.63
2019-04-01T03:49:27.996Z,2.43
2019-04-01T03:52:09.947Z,2.93
2019-04-01T03:54:43.038Z,3.20
2019-04-01T03:57:20.550Z,6.10
2019-04-01T03:59:58.340Z,7.17
2019-04-01T04:02:35.857Z,5.33
2019-04-01T04:05:13.346Z,5.40
2019-04-01T04:07:50.858Z,4.27
2019-04-01T04:10:28.347Z,4.43
2019-04-01T04:13:05.866Z,4.90
2019-04-01T04:15:43.394Z,4.90
2019-04-01T04:18:20.929Z,5.43
2019-04-01T04:20:58.428Z,9.40
2019-04-01T04:23:35.949Z,4.77
2019-04-01T04:26:13.460Z,5.77
2019-04-01T04:28:50.980Z,6.70
2019-04-01T04:31:28.488Z,5.53
2019-04-01T04:34:06.051Z,4.53
2019-04-01T04:36:43.558Z,4.03
2019-04-01T04:39:21.060Z,2.90
2019-04-01T04:41:58.558Z,3.40
2019-04-01T04:44:36.088Z,4.30
2019-04-01T04:47:13.625Z,2.73
2019-04-01T04:49:51.134Z,3.17
2019-04-01T04:52:28.679Z,3.00
2019-04-01T04:55:06.210Z,2.83
2019-04-01T04:57:43.725Z,2.73
2019-04-01T05:00:21.265Z,2.57
2019-04-01T05:02:58.775Z,2.57
2019-04-01T05:05:36.297Z,2.57
2019-04-01T05:08:13.840Z,2.67
2019-04-01T05:10:51.353Z,2.60
2019-04-01T05:13:28.925Z,2.90
2019-04-01T05:16:06.476Z,2.50
2019-04-01T05:18:44.001Z,2.47
2019-04-01T05:21:21.528Z,3.23
2019-04-01T05:23:59.040Z,2.97
2019-04-01T05:26:37.116Z,2.70
2019-04-01T05:29:14.667Z,3.03
2019-04-01T05:31:52.161Z,2.60
2019-04-01T05:34:29.677Z,2.97
2019-04-01T05:37:09.023Z,3.43
2019-04-01T05:39:44.720Z,2.73
2019-04-01T05:42:22.240Z,3.27
2019-04-01T05:44:59.789Z,5.47
2019-04-01T05:47:41.476Z,5.40
2019-04-01T05:50:18.904Z,6.87
2019-04-01T05:52:56.460Z,5.50
2019-04-01T05:55:34.250Z,8.67
2019-04-01T05:58:11.753Z,6.67
2019-04-01T06:00:52.815Z,4.90
2019-04-01T06:03:30.339Z,6.53
2019-04-01T06:06:07.897Z,6.50
2019-04-01T06:08:45.347Z,4.70
2019-04-01T06:11:22.843Z,4.97
2019-04-01T06:14:00.644Z,6.33
2019-04-01T06:16:38.140Z,4.83
2019-04-01T06:19:15.660Z,5.13
2019-04-01T06:21:53.139Z,4.43
2019-04-01T06:24:30.654Z,3.70
2019-04-01T06:27:08.197Z,5.00
2019-04-01T06:29:45.718Z,4.67
2019-04-01T06:32:23.217Z,4.80
2019-04-01T06:35:00.741Z,11.20
2019-04-01T06:37:38.271Z,4.53
2019-04-01T06:40:15.794Z,4.00
2019-04-01T06:42:54.077Z,3.87
2019-04-01T06:45:31.923Z,4.10
2019-04-01T06:48:09.477Z,3.60
2019-04-01T06:50:47.014Z,4.00
2019-04-01T06:53:24.662Z,3.37
2019-04-01T06:56:02.234Z,3.33
2019-04-01T06:58:39.809Z,3.10
2019-04-01T07:01:17.322Z,3.53
2019-04-01T07:03:54.840Z,3.30
2019-04-01T07:06:32.355Z,2.93
2019-04-01T07:09:10.488Z,3.23
2019-04-01T07:11:48.004Z,3.57
2019-04-01T07:14:25.496Z,3.33
2019-04-01T07:17:02.995Z,3.70
2019-04-01T07:19:40.522Z,3.47
2019-04-01T07:22:18.037Z,2.93
2019-04-01T07:24:55.567Z,5.10
2019-04-01T07:27:33.071Z,3.30
2019-04-01T07:30:10.634Z,3.80
2019-04-01T07:32:48.165Z,3.20
2019-04-01T07:35:25.680Z,3.37
2019-04-01T07:38:03.166Z,3.80
2019-04-01T07:40:40.692Z,3.70
2019-04-01T07:43:18.200Z,3.43
2019-04-01T07:45:55.752Z,4.40
2019-04-01T07:48:33.328Z,3.00
2019-04-01T16:44:06.678Z,2.77
2019-04-01T16:46:44.245Z,3.43
2019-04-01T16:49:21.822Z,3.03
2019-04-01T16:52:00.378Z,2.53
2019-04-01T16:54:37.716Z,3.00
2019-04-01T16:57:14.687Z,2.60
2019-04-01T16:59:52.311Z,2.50
2019-04-01T17:02:32.817Z,2.60
2019-04-01T17:05:07.754Z,2.70
2019-04-01T17:07:45.317Z,2.77
2019-04-01T17:10:26.159Z,2.70
2019-04-01T17:13:03.718Z,2.70
2019-04-01T17:15:41.425Z,2.20
2019-04-01T17:18:19.091Z,2.77
2019-04-01T17:20:56.696Z,2.70
2019-04-01T17:23:34.308Z,2.80
2019-04-01T17:26:11.894Z,2.70
2019-04-01T17:28:49.551Z,2.97
2019-04-01T17:31:30.558Z,3.10
2019-04-01T17:34:08.109Z,2.80
2019-04-01T17:36:45.630Z,2.90
2019-04-01T17:39:23.212Z,3.60
2019-04-01T17:42:00.713Z,4.20
2019-04-01T17:44:38.235Z,4.93
2019-04-01T17:47:15.749Z,3.63
2019-04-01T17:49:53.362Z,3.23
2019-04-01T17:52:30.997Z,3.63
2019-04-01T17:55:08.651Z,2.87
2019-04-01T17:57:46.560Z,2.90
2019-04-01T18:00:25.658Z,3.40
2019-04-01T18:03:04.185Z,3.50
2019-04-01T18:05:40.731Z,3.43
2019-04-01T18:08:18.303Z,2.97
2019-04-01T18:10:57.263Z,3.00
2019-04-01T18:13:33.386Z,3.00
2019-04-01T18:16:10.924Z,2.70
2019-04-01T18:18:48.534Z,2.53
2019-04-01T18:21:26.141Z,3.20
2019-04-01T18:24:03.805Z,2.97
2019-04-01T18:26:41.403Z,2.77
2019-04-01T18:29:19.012Z,2.70
2019-04-01T18:31:59.035Z,3.07
2019-04-01T18:34:34.190Z,2.67
2019-04-01T18:37:11.723Z,3.10
2019-04-01T18:39:50.678Z,3.30
2019-04-01T18:42:27.001Z,3.43
2019-04-01T18:45:04.301Z,3.30
2019-04-01T18:47:41.825Z,3.50
2019-04-01T18:50:19.337Z,3.43
2019-04-01T18:52:56.870Z,3.17
2019-04-01T18:55:34.484Z,3.50
2019-04-01T18:58:12.424Z,3.60
2019-04-01T19:00:50.856Z,4.83
2019-04-01T19:03:28.363Z,5.40
2019-04-01T19:06:07.251Z,7.30
2019-04-01T19:08:43.428Z,5.93
2019-04-01T19:11:21.550Z,5.70
2019-04-01T19:13:59.223Z,4.70
2019-04-01T19:16:36.693Z,4.10
2019-04-01T19:19:14.260Z,3.60
2019-04-01T19:21:51.779Z,3.63
2019-04-01T19:24:29.296Z,3.70
2019-04-01T19:27:06.836Z,4.00
2019-04-01T19:29:45.360Z,3.40
2019-04-01T19:32:22.195Z,3.40
2019-04-01T19:35:00.057Z,3.60
2019-04-01T19:37:37.658Z,3.40
2019-04-01T19:40:15.243Z,3.57
2019-04-01T19:42:52.935Z,3.30
2019-04-01T19:45:30.608Z,3.23
2019-04-01T19:48:08.239Z,3.40
2019-04-01T19:50:45.910Z,2.87
2019-04-01T19:53:24.579Z,3.33
2019-04-01T19:56:03.137Z,3.27
2019-04-01T19:58:40.095Z,3.50
2019-04-01T20:01:18.768Z,3.23
2019-04-01T20:03:56.260Z,3.53
2019-04-01T20:06:33.785Z,3.10
2019-04-01T20:09:11.824Z,3.10
2019-04-01T20:11:49.360Z,3.03
2019-04-01T20:14:26.897Z,3.50
2019-04-01T20:17:04.437Z,3.00
2019-04-01T20:19:41.965Z,3.23
2019-04-01T20:22:19.464Z,3.47
2019-04-01T20:24:57.023Z,4.23
2019-04-01T20:27:34.555Z,3.43
2019-04-01T20:30:12.170Z,3.33
2019-04-01T20:32:49.706Z,3.27
2019-04-01T20:35:28.298Z,3.73
2019-04-01T20:38:04.929Z,3.10
2019-04-01T20:40:42.559Z,3.50
2019-04-01T20:43:20.106Z,3.30
2019-04-01T20:45:57.639Z,3.17
2019-04-01T20:48:39.869Z,3.20
2019-04-01T20:51:17.341Z,3.10
2019-04-01T20:53:54.808Z,3.30
2019-04-01T20:56:32.327Z,3.17
2019-04-01T20:59:10.407Z,3.57
2019-04-01T21:01:47.447Z,3.80
2019-04-01T21:04:25.054Z,3.80
2019-04-01T21:07:02.605Z,3.27
2019-04-01T21:09:40.165Z,3.50
2019-04-01T21:12:17.836Z,3.50
2019-04-01T21:14:56.172Z,3.50
2019-04-01T21:17:33.084Z,3.60
2019-04-01T21:20:10.680Z,3.23
2019-04-01T21:22:48.320Z,3.53
2019-04-01T21:25:25.938Z,3.27
2019-04-01T21:28:03.548Z,3.47
2019-04-01T21:30:41.202Z,3.67
2019-04-01T21:33:18.825Z,3.30
2019-04-01T21:35:56.412Z,3.73
2019-04-01T21:38:34.025Z,3.67
2019-04-01T21:41:11.632Z,3.60
2019-04-01T21:43:49.483Z,3.50
2019-04-01T21:46:26.660Z,4.10
2019-04-01T21:49:04.195Z,4.17
2019-04-01T21:51:41.775Z,3.87
2019-04-01T21:54:19.406Z,3.77
2019-04-01T21:56:57.007Z,3.90
2019-04-01T21:59:34.549Z,4.00
2019-04-01T22:02:12.143Z,3.70
2019-04-01T22:04:49.683Z,3.70
2019-04-01T22:07:27.225Z,3.73
2019-04-01T22:10:04.814Z,3.67
2019-04-01T22:12:42.333Z,4.23
2019-04-01T22:15:19.900Z,3.67
2019-04-01T22:17:57.578Z,3.90
2019-04-01T22:20:35.200Z,3.97
2019-04-01T22:23:12.813Z,3.93
2019-04-01T22:25:50.488Z,3.70
2019-04-01T22:28:28.091Z,3.77
2019-04-01T22:31:05.750Z,3.77
2019-04-01T22:33:43.340Z,4.03
2019-04-01T22:36:30.433Z,4.00
2019-04-01T22:38:58.617Z,3.83
2019-04-01T22:41:36.255Z,3.90
2019-04-01T22:44:13.792Z,3.97
2019-04-01T22:46:51.318Z,3.70
2019-04-01T22:49:28.909Z,3.50
2019-04-01T22:52:06.878Z,4.10
2019-04-01T22:54:44.035Z,3.57
2019-04-01T22:57:21.589Z,3.50
2019-04-01T22:59:59.100Z,4.23
2019-04-01T23:02:36.723Z,3.80
2019-04-01T23:05:14.382Z,4.23
2019-04-01T23:07:52.096Z,3.70
2019-04-01T23:10:29.833Z,4.03
2019-04-01T23:13:07.511Z,3.80
2019-04-01T23:15:45.148Z,4.20
2019-04-01T23:18:22.768Z,3.83
2019-04-01T23:21:01.243Z,3.80
2019-04-01T23:23:38.065Z,3.87
2019-04-01T23:26:15.677Z,3.70
2019-04-01T23:28:53.694Z,4.23
2019-04-01T23:31:30.927Z,4.00
2019-04-01T23:34:08.575Z,4.23
2019-04-01T23:36:46.234Z,3.87
2019-04-01T23:39:23.878Z,3.97
2019-04-01T23:42:01.576Z,3.57
2019-04-01T23:44:39.208Z,4.13
2019-04-01T23:47:16.852Z,4.07
2019-04-01T23:49:54.877Z,4.57
2019-04-01T23:52:33.209Z,4.40
2019-04-01T23:55:10.204Z,4.43
2019-04-01T23:57:47.806Z,4.07
